sensor_id;sensor_type;location;lat;lon;timestamp;P1;durP1;ratioP1;P2;durP2;ratioP2
23300;SDS011;11819;51.394;12.340;2022-08-19T00:00:12;37.30;;;29.20;;
23300;SDS011;11819;51.394;12.340;2022-08-19T00:02:39;34.35;;;28.65;;
23300;SDS011;11819;51.394;12.340;2022-08-19T00:05:05;36.03;;;29.50;;
23300;SDS011;11819;51.394;12.340;2022-08-19T00:07:31;34.45;;;28.50;;
23300;SDS011;11819;51.394;12.340;2022-08-19T00:09:57;37.45;;;30.17;;
23300;SDS011;11819;51.394;12.340;2022-08-19T00:12:22;36.22;;;28.85;;
23300;SDS011;11819;51.394;12.340;2022-08-19T00:14:48;36.30;;;30.70;;
23300;SDS011;11819;51.394;12.340;2022-08-19T00:17:13;36.05;;;29.45;;
23300;SDS011;11819;51.394;12.340;2022-08-19T00:19:39;35.13;;;29.13;;
23300;SDS011;11819;51.394;12.340;2022-08-19T00:22:05;37.75;;;28.70;;
23300;SDS011;11819;51.394;12.340;2022-08-19T00:24:33;33.70;;;29.25;;
23300;SDS011;11819;51.394;12.340;2022-08-19T00:27:00;33.80;;;29.02;;
23300;SDS011;11819;51.394;12.340;2022-08-19T00:29:27;38.72;;;29.50;;
23300;SDS011;11819;51.394;12.340;2022-08-19T00:31:53;36.45;;;28.98;;
23300;SDS011;11819;51.394;12.340;2022-08-19T00:34:20;36.63;;;29.70;;
23300;SDS011;11819;51.394;12.340;2022-08-19T00:36:46;34.65;;;30.00;;
23300;SDS011;11819;51.394;12.340;2022-08-19T00:39:12;34.70;;;29.58;;
23300;SDS011;11819;51.394;12.340;2022-08-19T00:41:39;36.85;;;29.02;;
23300;SDS011;11819;51.394;12.340;2022-08-19T00:44:07;36.95;;;29.88;;
23300;SDS011;11819;51.394;12.340;2022-08-19T00:46:42;38.60;;;28.00;;
23300;SDS011;11819;51.394;12.340;2022-08-19T00:49:12;38.10;;;30.27;;
23300;SDS011;11819;51.394;12.340;2022-08-19T00:51:39;38.58;;;30.02;;
23300;SDS011;11819;51.394;12.340;2022-08-19T00:54:07;40.45;;;30.70;;
23300;SDS011;11819;51.394;12.340;2022-08-19T00:56:34;39.95;;;30.17;;
23300;SDS011;11819;51.394;12.340;2022-08-19T00:59:00;42.28;;;31.13;;
23300;SDS011;11819;51.394;12.340;2022-08-19T01:01:27;40.85;;;31.55;;
23300;SDS011;11819;51.394;12.340;2022-08-19T01:03:53;42.35;;;32.47;;
23300;SDS011;11819;51.394;12.340;2022-08-19T01:06:18;40.30;;;31.08;;
23300;SDS011;11819;51.394;12.340;2022-08-19T01:08:44;46.33;;;33.80;;
23300;SDS011;11819;51.394;12.340;2022-08-19T01:11:09;46.67;;;35.13;;
23300;SDS011;11819;51.394;12.340;2022-08-19T01:13:35;48.05;;;34.20;;
23300;SDS011;11819;51.394;12.340;2022-08-19T01:16:05;44.45;;;33.03;;
23300;SDS011;11819;51.394;12.340;2022-08-19T01:18:39;46.47;;;34.03;;
23300;SDS011;11819;51.394;12.340;2022-08-19T01:21:11;45.90;;;33.88;;
23300;SDS011;11819;51.394;12.340;2022-08-19T01:23:43;46.70;;;35.20;;
23300;SDS011;11819;51.394;12.340;2022-08-19T01:26:11;44.83;;;34.75;;
23300;SDS011;11819;51.394;12.340;2022-08-19T01:28:40;44.33;;;34.20;;
23300;SDS011;11819;51.394;12.340;2022-08-19T01:31:08;47.72;;;34.60;;
23300;SDS011;11819;51.394;12.340;2022-08-19T01:33:36;47.88;;;36.55;;
23300;SDS011;11819;51.394;12.340;2022-08-19T01:36:03;51.33;;;36.63;;
23300;SDS011;11819;51.394;12.340;2022-08-19T01:38:51;45.63;;;33.80;;
23300;SDS011;11819;51.394;12.340;2022-08-19T01:41:17;51.58;;;37.88;;
23300;SDS011;11819;51.394;12.340;2022-08-19T01:43:43;48.15;;;36.08;;
23300;SDS011;11819;51.394;12.340;2022-08-19T01:46:09;53.80;;;37.50;;
23300;SDS011;11819;51.394;12.340;2022-08-19T01:48:39;50.72;;;37.38;;
23300;SDS011;11819;51.394;12.340;2022-08-19T01:51:07;49.58;;;36.17;;
23300;SDS011;11819;51.394;12.340;2022-08-19T01:53:33;47.95;;;36.42;;
23300;SDS011;11819;51.394;12.340;2022-08-19T01:55:59;50.72;;;38.25;;
23300;SDS011;11819;51.394;12.340;2022-08-19T01:58:27;50.40;;;37.33;;
23300;SDS011;11819;51.394;12.340;2022-08-19T02:00:57;53.30;;;37.95;;
23300;SDS011;11819;51.394;12.340;2022-08-19T02:03:23;51.03;;;37.63;;
23300;SDS011;11819;51.394;12.340;2022-08-19T02:05:54;49.20;;;35.78;;
23300;SDS011;11819;51.394;12.340;2022-08-19T02:08:21;50.20;;;36.53;;
23300;SDS011;11819;51.394;12.340;2022-08-19T02:10:46;49.13;;;37.67;;
23300;SDS011;11819;51.394;12.340;2022-08-19T02:13:13;41.58;;;33.22;;
23300;SDS011;11819;51.394;12.340;2022-08-19T02:15:38;47.15;;;36.65;;
23300;SDS011;11819;51.394;12.340;2022-08-19T02:18:05;47.65;;;36.10;;
23300;SDS011;11819;51.394;12.340;2022-08-19T02:20:31;47.72;;;36.25;;
23300;SDS011;11819;51.394;12.340;2022-08-19T02:22:56;42.33;;;33.45;;
23300;SDS011;11819;51.394;12.340;2022-08-19T02:25:22;47.13;;;36.25;;
23300;SDS011;11819;51.394;12.340;2022-08-19T02:27:47;50.95;;;37.17;;
23300;SDS011;11819;51.394;12.340;2022-08-19T02:30:14;45.85;;;36.00;;
23300;SDS011;11819;51.394;12.340;2022-08-19T02:32:41;47.13;;;35.78;;
23300;SDS011;11819;51.394;12.340;2022-08-19T02:35:07;50.85;;;36.58;;
23300;SDS011;11819;51.394;12.340;2022-08-19T02:37:33;48.53;;;37.83;;
23300;SDS011;11819;51.394;12.340;2022-08-19T02:40:18;47.95;;;37.47;;
23300;SDS011;11819;51.394;12.340;2022-08-19T02:42:44;47.83;;;37.13;;
23300;SDS011;11819;51.394;12.340;2022-08-19T02:45:11;49.08;;;37.58;;
23300;SDS011;11819;51.394;12.340;2022-08-19T02:47:38;48.50;;;38.35;;
23300;SDS011;11819;51.394;12.340;2022-08-19T02:50:04;51.00;;;38.65;;
23300;SDS011;11819;51.394;12.340;2022-08-19T02:52:31;47.85;;;37.72;;
23300;SDS011;11819;51.394;12.340;2022-08-19T02:54:58;47.58;;;37.40;;
23300;SDS011;11819;51.394;12.340;2022-08-19T02:57:25;48.83;;;38.35;;
23300;SDS011;11819;51.394;12.340;2022-08-19T02:59:51;47.97;;;36.22;;
23300;SDS011;11819;51.394;12.340;2022-08-19T03:02:17;49.35;;;37.55;;
23300;SDS011;11819;51.394;12.340;2022-08-19T03:04:42;43.10;;;34.72;;
23300;SDS011;11819;51.394;12.340;2022-08-19T03:07:08;41.05;;;34.53;;
23300;SDS011;11819;51.394;12.340;2022-08-19T03:09:38;39.97;;;31.63;;
23300;SDS011;11819;51.394;12.340;2022-08-19T03:12:04;38.58;;;31.45;;
23300;SDS011;11819;51.394;12.340;2022-08-19T03:14:30;38.78;;;31.80;;
23300;SDS011;11819;51.394;12.340;2022-08-19T03:16:57;39.80;;;33.22;;
23300;SDS011;11819;51.394;12.340;2022-08-19T03:19:22;38.00;;;31.55;;
23300;SDS011;11819;51.394;12.340;2022-08-19T03:21:48;34.78;;;30.25;;
23300;SDS011;11819;51.394;12.340;2022-08-19T03:24:14;31.65;;;28.30;;
23300;SDS011;11819;51.394;12.340;2022-08-19T03:26:51;34.90;;;29.58;;
23300;SDS011;11819;51.394;12.340;2022-08-19T03:29:19;30.75;;;27.13;;
23300;SDS011;11819;51.394;12.340;2022-08-19T03:31:45;28.25;;;25.40;;
23300;SDS011;11819;51.394;12.340;2022-08-19T03:34:18;30.95;;;26.63;;
23300;SDS011;11819;51.394;12.340;2022-08-19T03:36:45;28.27;;;25.17;;
23300;SDS011;11819;51.394;12.340;2022-08-19T03:39:11;28.85;;;25.80;;
23300;SDS011;11819;51.394;12.340;2022-08-19T03:41:38;29.02;;;25.95;;
23300;SDS011;11819;51.394;12.340;2022-08-19T03:44:06;29.85;;;26.42;;
23300;SDS011;11819;51.394;12.340;2022-08-19T03:46:33;30.17;;;26.63;;
23300;SDS011;11819;51.394;12.340;2022-08-19T03:49:00;29.75;;;26.55;;
23300;SDS011;11819;51.394;12.340;2022-08-19T03:51:33;28.88;;;25.77;;
23300;SDS011;11819;51.394;12.340;2022-08-19T03:54:01;31.17;;;27.77;;
23300;SDS011;11819;51.394;12.340;2022-08-19T03:56:29;32.83;;;27.58;;
23300;SDS011;11819;51.394;12.340;2022-08-19T03:58:55;31.90;;;28.23;;
23300;SDS011;11819;51.394;12.340;2022-08-19T04:01:23;35.03;;;29.98;;
23300;SDS011;11819;51.394;12.340;2022-08-19T04:03:51;33.08;;;28.95;;
23300;SDS011;11819;51.394;12.340;2022-08-19T04:06:22;37.38;;;29.25;;
23300;SDS011;11819;51.394;12.340;2022-08-19T04:08:51;36.17;;;30.52;;
23300;SDS011;11819;51.394;12.340;2022-08-19T04:11:20;38.88;;;33.20;;
23300;SDS011;11819;51.394;12.340;2022-08-19T04:13:48;39.50;;;32.03;;
23300;SDS011;11819;51.394;12.340;2022-08-19T04:16:14;40.33;;;33.00;;
23300;SDS011;11819;51.394;12.340;2022-08-19T04:18:40;41.35;;;33.25;;
23300;SDS011;11819;51.394;12.340;2022-08-19T04:21:06;39.40;;;33.45;;
23300;SDS011;11819;51.394;12.340;2022-08-19T04:23:34;42.67;;;32.92;;
23300;SDS011;11819;51.394;12.340;2022-08-19T04:26:01;39.35;;;33.22;;
23300;SDS011;11819;51.394;12.340;2022-08-19T04:28:26;42.72;;;34.40;;
23300;SDS011;11819;51.394;12.340;2022-08-19T04:30:54;42.78;;;35.03;;
23300;SDS011;11819;51.394;12.340;2022-08-19T04:33:21;42.22;;;34.83;;
23300;SDS011;11819;51.394;12.340;2022-08-19T04:35:50;41.65;;;34.75;;
23300;SDS011;11819;51.394;12.340;2022-08-19T04:38:18;43.45;;;35.65;;
23300;SDS011;11819;51.394;12.340;2022-08-19T04:40:46;47.08;;;35.65;;
23300;SDS011;11819;51.394;12.340;2022-08-19T04:43:32;44.50;;;34.38;;
23300;SDS011;11819;51.394;12.340;2022-08-19T04:46:04;45.47;;;36.90;;
23300;SDS011;11819;51.394;12.340;2022-08-19T04:48:31;48.53;;;37.78;;
23300;SDS011;11819;51.394;12.340;2022-08-19T04:50:57;48.80;;;38.35;;
23300;SDS011;11819;51.394;12.340;2022-08-19T04:53:30;48.95;;;38.50;;
23300;SDS011;11819;51.394;12.340;2022-08-19T04:55:56;45.15;;;35.83;;
23300;SDS011;11819;51.394;12.340;2022-08-19T04:58:24;49.10;;;38.72;;
23300;SDS011;11819;51.394;12.340;2022-08-19T05:00:51;45.33;;;38.05;;
23300;SDS011;11819;51.394;12.340;2022-08-19T05:03:17;49.67;;;37.70;;
23300;SDS011;11819;51.394;12.340;2022-08-19T05:05:44;48.83;;;38.40;;
23300;SDS011;11819;51.394;12.340;2022-08-19T05:08:13;50.17;;;38.30;;
23300;SDS011;11819;51.394;12.340;2022-08-19T05:10:45;52.45;;;39.28;;
23300;SDS011;11819;51.394;12.340;2022-08-19T05:13:15;60.90;;;41.63;;
23300;SDS011;11819;51.394;12.340;2022-08-19T05:15:43;55.10;;;41.58;;
23300;SDS011;11819;51.394;12.340;2022-08-19T05:18:09;53.25;;;41.13;;
23300;SDS011;11819;51.394;12.340;2022-08-19T05:20:54;59.17;;;40.97;;
23300;SDS011;11819;51.394;12.340;2022-08-19T05:23:38;61.65;;;44.10;;
23300;SDS011;11819;51.394;12.340;2022-08-19T05:26:04;56.58;;;41.70;;
23300;SDS011;11819;51.394;12.340;2022-08-19T05:28:30;59.30;;;42.40;;
23300;SDS011;11819;51.394;12.340;2022-08-19T05:30:55;63.80;;;45.67;;
23300;SDS011;11819;51.394;12.340;2022-08-19T05:33:21;54.05;;;38.00;;
23300;SDS011;11819;51.394;12.340;2022-08-19T05:35:48;58.17;;;42.20;;
23300;SDS011;11819;51.394;12.340;2022-08-19T05:38:15;60.42;;;43.15;;
23300;SDS011;11819;51.394;12.340;2022-08-19T05:40:43;57.08;;;41.65;;
23300;SDS011;11819;51.394;12.340;2022-08-19T05:43:12;61.92;;;45.65;;
23300;SDS011;11819;51.394;12.340;2022-08-19T05:45:41;64.15;;;45.90;;
23300;SDS011;11819;51.394;12.340;2022-08-19T05:48:07;65.15;;;46.30;;
23300;SDS011;11819;51.394;12.340;2022-08-19T05:50:36;58.25;;;42.42;;
23300;SDS011;11819;51.394;12.340;2022-08-19T05:53:02;63.60;;;44.65;;
23300;SDS011;11819;51.394;12.340;2022-08-19T05:55:28;57.85;;;42.20;;
23300;SDS011;11819;51.394;12.340;2022-08-19T05:57:54;63.10;;;44.78;;
23300;SDS011;11819;51.394;12.340;2022-08-19T06:00:19;63.05;;;46.58;;
23300;SDS011;11819;51.394;12.340;2022-08-19T06:02:45;55.83;;;42.92;;
23300;SDS011;11819;51.394;12.340;2022-08-19T06:05:11;60.17;;;42.85;;
23300;SDS011;11819;51.394;12.340;2022-08-19T06:07:37;57.42;;;44.65;;
23300;SDS011;11819;51.394;12.340;2022-08-19T06:10:04;58.05;;;44.20;;
23300;SDS011;11819;51.394;12.340;2022-08-19T06:12:32;63.83;;;46.08;;
23300;SDS011;11819;51.394;12.340;2022-08-19T06:15:03;61.63;;;47.53;;
23300;SDS011;11819;51.394;12.340;2022-08-19T06:17:31;64.45;;;44.13;;
23300;SDS011;11819;51.394;12.340;2022-08-19T06:19:59;63.05;;;44.17;;
23300;SDS011;11819;51.394;12.340;2022-08-19T06:22:25;60.42;;;45.28;;
23300;SDS011;11819;51.394;12.340;2022-08-19T06:24:51;66.32;;;47.60;;
23300;SDS011;11819;51.394;12.340;2022-08-19T06:27:18;59.58;;;45.53;;
23300;SDS011;11819;51.394;12.340;2022-08-19T06:29:45;63.40;;;45.28;;
23300;SDS011;11819;51.394;12.340;2022-08-19T06:32:11;61.60;;;44.60;;
23300;SDS011;11819;51.394;12.340;2022-08-19T06:34:39;62.97;;;44.70;;
23300;SDS011;11819;51.394;12.340;2022-08-19T06:37:06;64.35;;;47.28;;
23300;SDS011;11819;51.394;12.340;2022-08-19T06:39:33;61.80;;;46.53;;
23300;SDS011;11819;51.394;12.340;2022-08-19T06:42:01;60.83;;;46.85;;
23300;SDS011;11819;51.394;12.340;2022-08-19T06:44:31;61.78;;;44.47;;
23300;SDS011;11819;51.394;12.340;2022-08-19T06:47:00;63.33;;;47.03;;
23300;SDS011;11819;51.394;12.340;2022-08-19T06:49:30;60.78;;;43.60;;
23300;SDS011;11819;51.394;12.340;2022-08-19T06:51:56;62.72;;;44.47;;
23300;SDS011;11819;51.394;12.340;2022-08-19T06:54:23;64.70;;;45.83;;
23300;SDS011;11819;51.394;12.340;2022-08-19T06:56:49;64.72;;;44.05;;
23300;SDS011;11819;51.394;12.340;2022-08-19T06:59:17;59.58;;;41.33;;
23300;SDS011;11819;51.394;12.340;2022-08-19T07:01:45;59.13;;;43.08;;
23300;SDS011;11819;51.394;12.340;2022-08-19T07:04:13;59.42;;;40.67;;
23300;SDS011;11819;51.394;12.340;2022-08-19T07:06:40;60.17;;;42.05;;
23300;SDS011;11819;51.394;12.340;2022-08-19T07:09:08;58.20;;;43.15;;
23300;SDS011;11819;51.394;12.340;2022-08-19T07:11:34;56.15;;;39.92;;
23300;SDS011;11819;51.394;12.340;2022-08-19T07:14:00;58.95;;;41.88;;
23300;SDS011;11819;51.394;12.340;2022-08-19T07:16:26;56.30;;;40.38;;
23300;SDS011;11819;51.394;12.340;2022-08-19T07:18:52;61.13;;;40.88;;
23300;SDS011;11819;51.394;12.340;2022-08-19T07:21:19;55.22;;;39.88;;
23300;SDS011;11819;51.394;12.340;2022-08-19T07:23:49;55.80;;;39.80;;
23300;SDS011;11819;51.394;12.340;2022-08-19T07:26:18;57.17;;;41.22;;
23300;SDS011;11819;51.394;12.340;2022-08-19T07:28:46;54.85;;;38.75;;
23300;SDS011;11819;51.394;12.340;2022-08-19T07:31:13;55.72;;;40.20;;
23300;SDS011;11819;51.394;12.340;2022-08-19T07:33:43;57.90;;;40.75;;
23300;SDS011;11819;51.394;12.340;2022-08-19T07:36:10;51.58;;;38.45;;
23300;SDS011;11819;51.394;12.340;2022-08-19T07:38:37;55.53;;;40.92;;
23300;SDS011;11819;51.394;12.340;2022-08-19T07:41:05;49.03;;;38.60;;
23300;SDS011;11819;51.394;12.340;2022-08-19T07:43:31;53.90;;;39.78;;
23300;SDS011;11819;51.394;12.340;2022-08-19T07:45:57;50.08;;;38.35;;
23300;SDS011;11819;51.394;12.340;2022-08-19T07:48:23;54.92;;;38.28;;
23300;SDS011;11819;51.394;12.340;2022-08-19T07:50:51;54.10;;;38.50;;
23300;SDS011;11819;51.394;12.340;2022-08-19T07:53:20;51.83;;;38.10;;
23300;SDS011;11819;51.394;12.340;2022-08-19T07:55:46;51.22;;;38.92;;
23300;SDS011;11819;51.394;12.340;2022-08-19T07:58:13;52.70;;;37.60;;
23300;SDS011;11819;51.394;12.340;2022-08-19T08:00:40;53.58;;;39.83;;
23300;SDS011;11819;51.394;12.340;2022-08-19T08:03:07;48.67;;;36.50;;
23300;SDS011;11819;51.394;12.340;2022-08-19T08:05:33;52.58;;;38.53;;
23300;SDS011;11819;51.394;12.340;2022-08-19T08:08:18;52.95;;;39.13;;
23300;SDS011;11819;51.394;12.340;2022-08-19T08:11:03;54.42;;;39.28;;
23300;SDS011;11819;51.394;12.340;2022-08-19T08:13:29;55.20;;;39.47;;
23300;SDS011;11819;51.394;12.340;2022-08-19T08:15:56;53.67;;;38.50;;
23300;SDS011;11819;51.394;12.340;2022-08-19T08:18:22;52.55;;;38.33;;
23300;SDS011;11819;51.394;12.340;2022-08-19T08:20:48;57.78;;;42.10;;
23300;SDS011;11819;51.394;12.340;2022-08-19T08:23:14;51.95;;;38.60;;
23300;SDS011;11819;51.394;12.340;2022-08-19T08:25:57;50.90;;;39.65;;
23300;SDS011;11819;51.394;12.340;2022-08-19T08:28:23;50.40;;;38.10;;
23300;SDS011;11819;51.394;12.340;2022-08-19T08:30:50;45.70;;;35.33;;
23300;SDS011;11819;51.394;12.340;2022-08-19T08:33:19;46.25;;;35.63;;
23300;SDS011;11819;51.394;12.340;2022-08-19T08:35:46;48.08;;;35.55;;
23300;SDS011;11819;51.394;12.340;2022-08-19T08:38:12;44.08;;;34.00;;
23300;SDS011;11819;51.394;12.340;2022-08-19T08:40:43;42.53;;;32.72;;
23300;SDS011;11819;51.394;12.340;2022-08-19T08:46:11;41.88;;;31.25;;
23300;SDS011;11819;51.394;12.340;2022-08-19T08:48:54;41.38;;;32.40;;
23300;SDS011;11819;51.394;12.340;2022-08-19T08:51:29;50.20;;;37.70;;
23300;SDS011;11819;51.394;12.340;2022-08-19T08:53:59;45.47;;;34.30;;
23300;SDS011;11819;51.394;12.340;2022-08-19T08:56:26;47.97;;;33.90;;
23300;SDS011;11819;51.394;12.340;2022-08-19T09:01:31;42.53;;;32.55;;
23300;SDS011;11819;51.394;12.340;2022-08-19T09:03:57;42.88;;;32.83;;
23300;SDS011;11819;51.394;12.340;2022-08-19T09:06:26;44.47;;;31.85;;
23300;SDS011;11819;51.394;12.340;2022-08-19T09:11:45;42.00;;;32.00;;
23300;SDS011;11819;51.394;12.340;2022-08-19T09:17:07;42.55;;;33.22;;
23300;SDS011;11819;51.394;12.340;2022-08-19T09:19:34;43.92;;;33.15;;
23300;SDS011;11819;51.394;12.340;2022-08-19T09:22:11;45.17;;;34.72;;
23300;SDS011;11819;51.394;12.340;2022-08-19T09:24:36;46.33;;;33.53;;
23300;SDS011;11819;51.394;12.340;2022-08-19T09:27:03;44.83;;;34.50;;
23300;SDS011;11819;51.394;12.340;2022-08-19T09:29:29;44.97;;;33.10;;
23300;SDS011;11819;51.394;12.340;2022-08-19T09:31:55;44.13;;;31.80;;
23300;SDS011;11819;51.394;12.340;2022-08-19T09:34:21;43.60;;;30.63;;
23300;SDS011;11819;51.394;12.340;2022-08-19T09:36:46;48.35;;;34.50;;
23300;SDS011;11819;51.394;12.340;2022-08-19T09:39:18;43.83;;;32.55;;
23300;SDS011;11819;51.394;12.340;2022-08-19T09:41:43;42.33;;;34.13;;
23300;SDS011;11819;51.394;12.340;2022-08-19T09:44:09;42.17;;;29.50;;
23300;SDS011;11819;51.394;12.340;2022-08-19T09:46:36;48.10;;;33.92;;
23300;SDS011;11819;51.394;12.340;2022-08-19T09:49:02;44.72;;;32.17;;
23300;SDS011;11819;51.394;12.340;2022-08-19T09:51:30;41.95;;;32.03;;
23300;SDS011;11819;51.394;12.340;2022-08-19T09:53:58;41.28;;;31.67;;
23300;SDS011;11819;51.394;12.340;2022-08-19T09:56:26;41.50;;;31.23;;
23300;SDS011;11819;51.394;12.340;2022-08-19T09:58:52;37.67;;;28.27;;
23300;SDS011;11819;51.394;12.340;2022-08-19T10:01:22;37.22;;;28.83;;
23300;SDS011;11819;51.394;12.340;2022-08-19T10:03:51;38.50;;;27.85;;
23300;SDS011;11819;51.394;12.340;2022-08-19T10:06:19;36.35;;;26.67;;
23300;SDS011;11819;51.394;12.340;2022-08-19T10:08:46;34.25;;;25.58;;
23300;SDS011;11819;51.394;12.340;2022-08-19T10:11:12;34.35;;;25.60;;
23300;SDS011;11819;51.394;12.340;2022-08-19T10:13:41;29.60;;;22.33;;
23300;SDS011;11819;51.394;12.340;2022-08-19T10:16:08;35.38;;;26.20;;
23300;SDS011;11819;51.394;12.340;2022-08-19T10:18:38;35.33;;;27.60;;
23300;SDS011;11819;51.394;12.340;2022-08-19T10:21:15;33.75;;;25.55;;
23300;SDS011;11819;51.394;12.340;2022-08-19T10:23:44;32.03;;;24.77;;
23300;SDS011;11819;51.394;12.340;2022-08-19T10:26:15;31.85;;;25.45;;
23300;SDS011;11819;51.394;12.340;2022-08-19T10:28:43;29.67;;;23.80;;
23300;SDS011;11819;51.394;12.340;2022-08-19T10:31:13;30.05;;;25.17;;
23300;SDS011;11819;51.394;12.340;2022-08-19T10:33:44;31.27;;;23.55;;
23300;SDS011;11819;51.394;12.340;2022-08-19T10:36:12;32.85;;;24.45;;
23300;SDS011;11819;51.394;12.340;2022-08-19T10:38:40;29.08;;;22.42;;
23300;SDS011;11819;51.394;12.340;2022-08-19T10:41:10;27.73;;;21.30;;
23300;SDS011;11819;51.394;12.340;2022-08-19T10:43:39;28.13;;;20.73;;
23300;SDS011;11819;51.394;12.340;2022-08-19T10:46:10;31.13;;;21.67;;
23300;SDS011;11819;51.394;12.340;2022-08-19T10:48:37;29.13;;;22.13;;
23300;SDS011;11819;51.394;12.340;2022-08-19T10:51:02;25.85;;;20.92;;
23300;SDS011;11819;51.394;12.340;2022-08-19T10:53:47;25.33;;;21.23;;
23300;SDS011;11819;51.394;12.340;2022-08-19T10:56:13;33.35;;;21.77;;
23300;SDS011;11819;51.394;12.340;2022-08-19T10:58:57;24.88;;;19.45;;
23300;SDS011;11819;51.394;12.340;2022-08-19T11:01:24;22.65;;;18.77;;
23300;SDS011;11819;51.394;12.340;2022-08-19T11:03:50;22.95;;;18.48;;
23300;SDS011;11819;51.394;12.340;2022-08-19T11:06:17;22.58;;;18.25;;
23300;SDS011;11819;51.394;12.340;2022-08-19T11:08:42;22.05;;;17.77;;
23300;SDS011;11819;51.394;12.340;2022-08-19T11:11:11;23.95;;;17.48;;
23300;SDS011;11819;51.394;12.340;2022-08-19T11:13:38;22.85;;;19.05;;
23300;SDS011;11819;51.394;12.340;2022-08-19T11:16:09;25.55;;;18.55;;
23300;SDS011;11819;51.394;12.340;2022-08-19T11:18:39;22.83;;;18.17;;
23300;SDS011;11819;51.394;12.340;2022-08-19T11:21:12;23.52;;;17.88;;
23300;SDS011;11819;51.394;12.340;2022-08-19T11:23:42;23.52;;;17.80;;
23300;SDS011;11819;51.394;12.340;2022-08-19T11:26:08;21.52;;;17.10;;
23300;SDS011;11819;51.394;12.340;2022-08-19T11:28:34;21.25;;;17.15;;
23300;SDS011;11819;51.394;12.340;2022-08-19T11:31:00;20.33;;;16.10;;
23300;SDS011;11819;51.394;12.340;2022-08-19T11:33:26;21.45;;;17.40;;
23300;SDS011;11819;51.394;12.340;2022-08-19T11:35:52;19.75;;;15.82;;
23300;SDS011;11819;51.394;12.340;2022-08-19T11:38:18;21.55;;;17.45;;
23300;SDS011;11819;51.394;12.340;2022-08-19T11:40:44;21.45;;;15.93;;
23300;SDS011;11819;51.394;12.340;2022-08-19T11:43:09;19.30;;;15.90;;
23300;SDS011;11819;51.394;12.340;2022-08-19T11:45:35;18.70;;;13.75;;
23300;SDS011;11819;51.394;12.340;2022-08-19T11:48:01;21.50;;;15.35;;
23300;SDS011;11819;51.394;12.340;2022-08-19T11:50:27;20.02;;;14.60;;
23300;SDS011;11819;51.394;12.340;2022-08-19T11:52:53;20.50;;;15.07;;
23300;SDS011;11819;51.394;12.340;2022-08-19T11:55:20;22.15;;;16.75;;
23300;SDS011;11819;51.394;12.340;2022-08-19T11:57:45;19.13;;;14.80;;
23300;SDS011;11819;51.394;12.340;2022-08-19T12:00:12;18.25;;;14.57;;
23300;SDS011;11819;51.394;12.340;2022-08-19T12:02:38;18.42;;;15.10;;
23300;SDS011;11819;51.394;12.340;2022-08-19T12:05:04;21.00;;;16.10;;
23300;SDS011;11819;51.394;12.340;2022-08-19T12:07:31;17.55;;;14.88;;
23300;SDS011;11819;51.394;12.340;2022-08-19T12:09:58;19.50;;;16.08;;
23300;SDS011;11819;51.394;12.340;2022-08-19T12:12:25;21.77;;;16.48;;
23300;SDS011;11819;51.394;12.340;2022-08-19T12:14:52;18.23;;;16.05;;
23300;SDS011;11819;51.394;12.340;2022-08-19T12:17:27;18.10;;;15.80;;
23300;SDS011;11819;51.394;12.340;2022-08-19T12:19:54;18.75;;;15.45;;
23300;SDS011;11819;51.394;12.340;2022-08-19T12:22:19;19.08;;;15.85;;
23300;SDS011;11819;51.394;12.340;2022-08-19T12:24:46;20.05;;;16.25;;
23300;SDS011;11819;51.394;12.340;2022-08-19T12:27:12;19.35;;;16.60;;
23300;SDS011;11819;51.394;12.340;2022-08-19T12:29:38;20.27;;;16.10;;
23300;SDS011;11819;51.394;12.340;2022-08-19T12:32:04;18.50;;;15.45;;
23300;SDS011;11819;51.394;12.340;2022-08-19T12:34:31;19.20;;;15.63;;
23300;SDS011;11819;51.394;12.340;2022-08-19T12:36:58;22.85;;;17.58;;
23300;SDS011;11819;51.394;12.340;2022-08-19T12:39:25;19.17;;;16.63;;
23300;SDS011;11819;51.394;12.340;2022-08-19T12:41:51;18.63;;;14.95;;
23300;SDS011;11819;51.394;12.340;2022-08-19T12:44:17;18.00;;;15.60;;
23300;SDS011;11819;51.394;12.340;2022-08-19T12:46:42;18.38;;;15.30;;
23300;SDS011;11819;51.394;12.340;2022-08-19T12:49:08;21.33;;;16.50;;
23300;SDS011;11819;51.394;12.340;2022-08-19T12:51:35;21.23;;;16.77;;
23300;SDS011;11819;51.394;12.340;2022-08-19T12:54:00;22.90;;;18.08;;
23300;SDS011;11819;51.394;12.340;2022-08-19T12:56:27;19.50;;;16.38;;
23300;SDS011;11819;51.394;12.340;2022-08-19T12:58:52;20.15;;;16.23;;
23300;SDS011;11819;51.394;12.340;2022-08-19T13:01:18;20.77;;;17.50;;
23300;SDS011;11819;51.394;12.340;2022-08-19T13:03:44;23.38;;;18.50;;
23300;SDS011;11819;51.394;12.340;2022-08-19T13:06:10;19.90;;;16.55;;
23300;SDS011;11819;51.394;12.340;2022-08-19T13:08:36;19.05;;;16.33;;
23300;SDS011;11819;51.394;12.340;2022-08-19T13:11:07;21.67;;;17.35;;
23300;SDS011;11819;51.394;12.340;2022-08-19T13:13:39;20.52;;;17.38;;
23300;SDS011;11819;51.394;12.340;2022-08-19T13:16:07;22.08;;;17.55;;
23300;SDS011;11819;51.394;12.340;2022-08-19T13:18:35;19.17;;;16.40;;
23300;SDS011;11819;51.394;12.340;2022-08-19T13:21:04;18.58;;;16.38;;
23300;SDS011;11819;51.394;12.340;2022-08-19T13:23:31;18.60;;;16.48;;
23300;SDS011;11819;51.394;12.340;2022-08-19T13:26:01;21.33;;;17.85;;
23300;SDS011;11819;51.394;12.340;2022-08-19T13:28:30;19.17;;;16.17;;
23300;SDS011;11819;51.394;12.340;2022-08-19T13:31:16;20.88;;;16.45;;
23300;SDS011;11819;51.394;12.340;2022-08-19T13:34:02;20.42;;;15.93;;
23300;SDS011;11819;51.394;12.340;2022-08-19T13:36:28;17.70;;;14.70;;
23300;SDS011;11819;51.394;12.340;2022-08-19T13:38:54;17.52;;;15.68;;
23300;SDS011;11819;51.394;12.340;2022-08-19T13:41:21;19.70;;;15.77;;
23300;SDS011;11819;51.394;12.340;2022-08-19T13:43:46;18.58;;;15.50;;
23300;SDS011;11819;51.394;12.340;2022-08-19T13:46:13;18.95;;;16.58;;
23300;SDS011;11819;51.394;12.340;2022-08-19T13:48:39;19.50;;;16.13;;
23300;SDS011;11819;51.394;12.340;2022-08-19T13:51:06;17.80;;;15.82;;
23300;SDS011;11819;51.394;12.340;2022-08-19T13:53:38;19.15;;;16.83;;
23300;SDS011;11819;51.394;12.340;2022-08-19T13:56:05;24.00;;;17.35;;
23300;SDS011;11819;51.394;12.340;2022-08-19T13:58:31;18.55;;;16.35;;
23300;SDS011;11819;51.394;12.340;2022-08-19T14:00:57;20.27;;;16.52;;
23300;SDS011;11819;51.394;12.340;2022-08-19T14:03:24;20.10;;;16.70;;
23300;SDS011;11819;51.394;12.340;2022-08-19T14:05:49;18.48;;;15.80;;
23300;SDS011;11819;51.394;12.340;2022-08-19T14:08:15;17.98;;;16.00;;
23300;SDS011;11819;51.394;12.340;2022-08-19T14:10:42;18.90;;;14.93;;
23300;SDS011;11819;51.394;12.340;2022-08-19T14:13:09;17.35;;;13.88;;
23300;SDS011;11819;51.394;12.340;2022-08-19T14:15:37;18.30;;;14.75;;
23300;SDS011;11819;51.394;12.340;2022-08-19T14:18:03;17.65;;;14.88;;
23300;SDS011;11819;51.394;12.340;2022-08-19T14:20:28;19.05;;;14.55;;
23300;SDS011;11819;51.394;12.340;2022-08-19T14:22:54;16.25;;;13.38;;